Time;durP1;ratioP1;P1;durP2;ratioP2;P2;SDS_P1;SDS_P2;PMS_P1;PMS_P2;Temp;Humidity;BMP_temperature;BMP_pressure;BME280_temperature;BME280_humidity;BME280_pressure;Samples;Min_cycle;Max_cycle;Signal;HPM_P1;HPM_P2
2022/01/29 00:00:23;;;;;;;50.00;29.67;;;7.40;90.00;;;;;;5019931;28;20409;-73
2022/01/29 00:02:49;;;;;;;48.47;29.80;;;7.40;90.10;;;;;;5018209;28;20042;-73
2022/01/29 00:05:15;;;;;;;51.50;30.08;;;7.50;90.10;;;;;;5021988;28;20044;-73
2022/01/29 00:07:43;;;;;;;48.20;29.40;;;7.50;90.10;;;;;;5020951;28;20547;-75
2022/01/29 00:10:13;;;;;;;47.60;29.98;;;7.50;90.10;;;;;;5016959;28;20121;-74
2022/01/29 00:12:40;;;;;;;48.03;29.42;;;7.50;90.20;;;;;;5018026;28;20021;-73
2022/01/29 00:15:06;;;;;;;47.72;30.13;;;7.50;90.40;;;;;;5020567;28;20106;-73
2022/01/29 00:17:32;;;;;;;53.03;30.40;;;7.50;90.40;;;;;;5017213;28;20103;-73
2022/01/29 00:19:58;;;;;;;50.28;29.48;;;7.50;90.50;;;;;;5020607;28;20468;-76
2022/01/29 00:22:24;;;;;;;59.58;31.40;;;7.50;90.70;;;;;;5018879;28;20028;-75
2022/01/29 00:24:50;;;;;;;51.15;30.80;;;7.50;90.70;;;;;;5020349;28;20036;-75
2022/01/29 00:27:18;;;;;;;53.70;31.70;;;7.40;90.80;;;;;;5001159;28;20385;-75
2022/01/29 00:29:44;;;;;;;51.22;31.48;;;7.50;90.90;;;;;;5023152;28;20033;-74
2022/01/29 00:32:11;;;;;;;49.22;29.17;;;7.50;90.90;;;;;;5013248;28;20087;-74
2022/01/29 00:34:38;;;;;;;52.30;29.83;;;7.50;90.90;;;;;;5022954;28;20163;-75
2022/01/29 00:37:04;;;;;;;54.72;30.73;;;7.50;90.90;;;;;;5021264;28;20596;-73
2022/01/29 00:39:30;;;;;;;50.33;30.30;;;7.50;91.00;;;;;;5019584;28;20056;-74
2022/01/29 00:41:56;;;;;;;48.33;28.88;;;7.50;91.00;;;;;;5021539;28;20425;-77
2022/01/29 00:44:21;;;;;;;51.08;29.30;;;7.50;91.20;;;;;;5018293;28;20030;-74
2022/01/29 00:46:47;;;;;;;52.50;30.88;;;7.50;91.40;;;;;;5016795;28;20038;-75
2022/01/29 00:49:13;;;;;;;54.33;30.88;;;7.50;91.50;;;;;;5016663;28;20099;-73
2022/01/29 00:51:39;;;;;;;55.05;29.08;;;7.50;91.80;;;;;;5026237;28;20057;-74
2022/01/29 00:54:05;;;;;;;50.42;28.88;;;7.50;92.00;;;;;;5014358;28;20099;-75
2022/01/29 00:56:31;;;;;;;54.42;30.95;;;7.50;92.10;;;;;;5017484;28;20046;-75
2022/01/29 00:58:57;;;;;;;50.92;30.02;;;7.40;92.20;;;;;;5017904;28;20036;-76
2022/01/29 01:01:23;;;;;;;49.88;31.27;;;7.40;92.30;;;;;;5022673;28;20029;-73
2022/01/29 01:03:49;;;;;;;47.40;29.02;;;7.40;92.40;;;;;;5017771;28;20037;-74
2022/01/29 01:06:14;;;;;;;45.88;28.27;;;7.40;92.40;;;;;;5028063;28;20034;-74
2022/01/29 01:08:40;;;;;;;51.55;30.33;;;7.40;92.50;;;;;;5022231;28;20034;-74
2022/01/29 01:11:06;;;;;;;45.45;29.02;;;7.40;92.60;;;;;;5014864;28;20033;-76
2022/01/29 01:13:33;;;;;;;50.80;28.52;;;7.40;92.60;;;;;;5022233;28;20467;-73
2022/01/29 01:15:59;;;;;;;48.65;28.08;;;7.40;92.70;;;;;;5019203;28;20095;-75
2022/01/29 01:18:25;;;;;;;52.05;30.15;;;7.40;92.90;;;;;;5021032;28;20029;-74
2022/01/29 01:20:51;;;;;;;50.97;29.05;;;7.30;92.90;;;;;;5024858;28;20091;-73
2022/01/29 01:23:17;;;;;;;47.05;27.05;;;7.30;93.00;;;;;;5019138;28;20037;-75
2022/01/29 01:25:43;;;;;;;49.15;29.38;;;7.40;93.00;;;;;;5015861;28;20544;-73
2022/01/29 01:28:10;;;;;;;46.33;26.85;;;7.40;93.10;;;;;;5021390;28;20438;-75
2022/01/29 01:30:36;;;;;;;48.85;27.33;;;7.40;93.10;;;;;;5025163;28;20033;-73
2022/01/29 01:33:03;;;;;;;46.08;26.52;;;7.40;93.20;;;;;;5018432;28;20445;-75
2022/01/29 01:35:34;;;;;;;43.65;26.63;;;7.40;93.20;;;;;;5022827;28;20073;-76
2022/01/29 01:38:25;;;;;;;43.83;26.70;;;7.40;93.30;;;;;;5002219;28;20420;-74
2022/01/29 01:40:52;;;;;;;41.80;26.48;;;7.50;93.30;;;;;;5019015;28;20134;-75
2022/01/29 01:43:18;;;;;;;44.88;25.25;;;7.50;93.30;;;;;;5021147;28;20068;-76
2022/01/29 01:45:44;;;;;;;43.83;26.48;;;7.50;93.30;;;;;;5020413;28;20552;-74
2022/01/29 01:48:10;;;;;;;41.47;25.88;;;7.50;93.30;;;;;;5016304;28;20096;-73
2022/01/29 01:50:36;;;;;;;39.28;25.95;;;7.50;93.30;;;;;;5020874;28;20091;-76
2022/01/29 01:53:03;;;;;;;42.72;24.35;;;7.50;93.40;;;;;;5017873;28;20491;-75
2022/01/29 01:55:30;;;;;;;46.60;25.65;;;7.50;93.40;;;;;;5024024;28;20411;-75
2022/01/29 01:57:57;;;;;;;41.85;25.65;;;7.60;93.50;;;;;;5001594;28;20408;-73
2022/01/29 02:00:27;;;;;;;38.65;24.17;;;7.60;93.40;;;;;;5020340;28;20369;-74
2022/01/29 02:02:53;;;;;;;40.40;23.55;;;7.60;93.50;;;;;;5022170;28;20049;-74
2022/01/29 02:05:19;;;;;;;38.45;22.20;;;7.60;93.60;;;;;;5024877;28;20037;-74
2022/01/29 02:07:45;;;;;;;34.72;22.20;;;7.60;93.50;;;;;;5028009;28;20043;-73
2022/01/29 02:10:12;;;;;;;31.23;21.25;;;7.60;93.50;;;;;;5019247;28;20046;-74
2022/01/29 02:13:05;;;;;;;38.65;21.48;;;7.70;93.50;;;;;;5019077;28;20121;-73
2022/01/29 02:15:31;;;;;;;32.97;21.10;;;7.70;93.50;;;;;;5015484;28;20057;-74
2022/01/29 02:17:58;;;;;;;31.08;21.00;;;7.70;93.60;;;;;;5002125;28;20091;-73
2022/01/29 02:20:29;;;;;;;33.63;20.20;;;7.70;93.50;;;;;;5024952;28;20037;-74
2022/01/29 02:22:55;;;;;;;32.47;20.38;;;7.70;93.60;;;;;;5022046;28;20574;-73
2022/01/29 02:25:48;;;;;;;32.53;20.23;;;7.80;93.50;;;;;;5010476;28;20370;-73
2022/01/29 02:28:17;;;;;;;36.53;21.35;;;7.70;93.40;;;;;;5019817;28;20137;-74
2022/01/29 02:30:47;;;;;;;36.90;22.95;;;7.80;93.40;;;;;;5024941;28;20495;-72
2022/01/29 02:33:14;;;;;;;38.15;22.13;;;7.70;93.40;;;;;;5016902;28;20076;-73
2022/01/29 02:35:42;;;;;;;31.63;21.05;;;7.70;93.30;;;;;;5022115;28;20045;-73
2022/01/29 02:38:13;;;;;;;31.45;21.20;;;7.70;93.40;;;;;;5016682;28;20033;-72
2022/01/29 02:40:50;;;;;;;29.23;18.02;;;7.70;93.40;;;;;;5027134;28;20094;-73
2022/01/29 02:43:18;;;;;;;27.02;17.90;;;7.80;93.50;;;;;;5014936;28;20038;-73
2022/01/29 02:45:46;;;;;;;30.55;17.52;;;7.80;93.60;;;;;;5022618;28;20037;-75
2022/01/29 02:48:12;;;;;;;24.65;16.52;;;7.80;93.60;;;;;;5021084;28;20313;-74
2022/01/29 02:50:39;;;;;;;22.38;14.68;;;7.80;93.60;;;;;;5008269;28;20064;-76
2022/01/29 02:53:06;;;;;;;21.27;13.43;;;7.90;93.70;;;;;;4999240;28;20044;-76
2022/01/29 02:55:31;;;;;;;18.15;12.35;;;8.00;93.70;;;;;;5025442;28;20606;-75
2022/01/29 02:57:57;;;;;;;19.20;12.63;;;8.10;93.70;;;;;;5020944;28;20112;-74
2022/01/29 03:00:23;;;;;;;18.73;11.43;;;8.10;93.80;;;;;;5017191;28;20041;-74
2022/01/29 03:02:49;;;;;;;18.15;12.15;;;8.10;93.80;;;;;;5017804;28;20083;-74
2022/01/29 03:05:15;;;;;;;16.52;11.02;;;8.10;93.80;;;;;;5001567;28;20570;-75
2022/01/29 03:07:40;;;;;;;17.85;11.63;;;8.20;93.80;;;;;;5020551;28;20528;-73
2022/01/29 03:10:07;;;;;;;19.10;11.80;;;8.20;93.70;;;;;;5016525;28;20350;-77
2022/01/29 03:12:33;;;;;;;15.90;10.20;;;8.30;93.70;;;;;;5000223;28;20038;-73
2022/01/29 03:14:59;;;;;;;15.32;10.20;;;8.30;93.70;;;;;;5022712;28;20647;-75
2022/01/29 03:17:25;;;;;;;13.65;9.70;;;8.30;93.70;;;;;;5016810;28;20146;-73
2022/01/29 03:19:52;;;;;;;16.17;10.57;;;8.40;93.70;;;;;;5020908;28;21323;-74
2022/01/29 03:22:18;;;;;;;16.33;10.60;;;8.40;93.60;;;;;;5016741;28;20030;-73
2022/01/29 03:24:44;;;;;;;16.00;9.57;;;8.40;93.60;;;;;;5017946;28;20040;-74
2022/01/29 03:27:10;;;;;;;15.13;9.82;;;8.40;93.60;;;;;;5015245;28;20528;-74
2022/01/29 03:29:35;;;;;;;15.10;10.23;;;8.40;93.60;;;;;;5019311;28;20091;-74
2022/01/29 03:32:02;;;;;;;15.10;9.52;;;8.50;93.50;;;;;;5020257;28;20196;-75
2022/01/29 03:34:27;;;;;;;14.10;9.50;;;8.50;93.50;;;;;;5017068;28;20037;-74
2022/01/29 03:36:55;;;;;;;15.43;10.20;;;8.50;93.50;;;;;;5018895;28;20126;-73
2022/01/29 03:39:21;;;;;;;15.60;10.80;;;8.50;93.50;;;;;;5019531;28;20456;-74
2022/01/29 03:41:47;;;;;;;15.20;9.93;;;8.60;93.60;;;;;;5016834;28;20084;-74
2022/01/29 03:44:13;;;;;;;16.83;10.43;;;8.60;93.50;;;;;;5021856;28;20587;-73
2022/01/29 03:46:38;;;;;;;16.45;10.82;;;8.60;93.40;;;;;;5033743;28;20041;-74
2022/01/29 03:49:04;;;;;;;16.27;10.40;;;8.50;93.40;;;;;;5022657;28;20048;-75
2022/01/29 03:51:29;;;;;;;16.95;10.68;;;8.60;93.50;;;;;;5021281;28;20042;-73
2022/01/29 03:53:55;;;;;;;13.95;9.95;;;8.50;93.30;;;;;;5017129;28;20194;-74
2022/01/29 03:56:21;;;;;;;14.70;10.27;;;8.50;93.40;;;;;;5018134;28;20079;-75
2022/01/29 03:58:46;;;;;;;15.80;9.82;;;8.60;93.40;;;;;;5017301;28;20113;-74
2022/01/29 04:01:12;;;;;;;16.02;10.73;;;8.60;93.40;;;;;;5013461;28;20041;-76
2022/01/29 04:03:38;;;;;;;14.38;9.98;;;8.60;93.30;;;;;;5023846;28;20380;-74
2022/01/29 04:06:04;;;;;;;14.85;10.27;;;8.60;93.40;;;;;;5023088;28;20538;-73
2022/01/29 04:08:32;;;;;;;14.60;10.23;;;8.60;93.30;;;;;;5017399;28;20042;-74
2022/01/29 04:10:58;;;;;;;15.00;10.52;;;8.60;93.40;;;;;;5013872;28;20042;-74
2022/01/29 04:13:26;;;;;;;15.75;11.18;;;8.60;93.40;;;;;;5023318;28;20500;-74
2022/01/29 04:15:52;;;;;;;17.13;11.30;;;8.60;93.30;;;;;;5021717;28;20324;-75
2022/01/29 04:18:18;;;;;;;16.90;11.60;;;8.60;93.30;;;;;;5017168;28;20477;-73
2022/01/29 04:20:44;;;;;;;17.20;11.65;;;8.60;93.30;;;;;;5007197;28;20475;-74
2022/01/29 04:23:10;;;;;;;18.65;11.35;;;8.60;93.30;;;;;;5015763;28;20110;-75
2022/01/29 04:25:36;;;;;;;16.33;12.25;;;8.60;93.40;;;;;;5002741;28;20045;-73
2022/01/29 04:28:02;;;;;;;16.85;10.95;;;8.60;93.40;;;;;;5018145;28;20271;-75
2022/01/29 04:30:30;;;;;;;17.20;11.98;;;8.70;93.40;;;;;;5013057;28;20026;-73
2022/01/29 04:33:43;;;;;;;15.80;11.25;;;8.70;93.20;;;;;;5019125;28;20068;-75
2022/01/29 04:35:43;;;;;;;18.20;11.50;;;8.70;93.30;;;;;;5015924;28;20042;-74
2022/01/29 04:38:10;;;;;;;16.55;11.85;;;8.70;93.40;;;;;;5010479;28;20610;-76
2022/01/29 04:40:36;;;;;;;21.42;12.85;;;8.60;93.40;;;;;;5025504;28;20037;-74
2022/01/29 04:43:02;;;;;;;18.85;12.55;;;8.70;93.40;;;;;;5019811;28;20398;-76
2022/01/29 04:45:28;;;;;;;18.80;12.98;;;8.70;93.40;;;;;;5020165;28;20049;-76
2022/01/29 04:47:54;;;;;;;18.42;12.90;;;8.70;93.40;;;;;;5017133;28;20037;-75
2022/01/29 04:50:19;;;;;;;18.15;12.30;;;8.70;93.40;;;;;;5019684;28;20040;-73
2022/01/29 04:52:45;;;;;;;18.50;12.38;;;8.70;93.40;;;;;;5017168;28;20165;-76
2022/01/29 04:55:11;;;;;;;20.65;12.80;;;8.70;93.40;;;;;;5015551;28;20049;-75
2022/01/29 04:57:39;;;;;;;18.42;12.38;;;8.70;93.50;;;;;;5016078;28;20037;-75
2022/01/29 05:00:08;;;;;;;19.83;12.82;;;8.70;93.40;;;;;;5022418;28;20029;-75
2022/01/29 05:02:35;;;;;;;17.95;11.70;;;8.80;93.50;;;;;;5018863;28;20029;-75
2022/01/29 05:05:00;;;;;;;18.70;12.30;;;8.80;93.40;;;;;;5021377;28;20033;-74
2022/01/29 05:07:26;;;;;;;17.60;11.18;;;8.80;93.50;;;;;;5020196;28;20064;-73
2022/01/29 05:09:52;;;;;;;17.85;11.77;;;8.80;93.40;;;;;;5021344;28;20064;-77
2022/01/29 05:12:24;;;;;;;16.08;11.13;;;8.80;93.40;;;;;;5004767;28;20030;-73
2022/01/29 05:15:38;;;;;;;17.65;11.23;;;8.80;93.40;;;;;;5023158;28;20469;-74
2022/01/29 05:28:35;;;;;;;17.92;10.27;;;8.80;93.40;;;;;;5024297;28;20103;-74
2022/01/29 05:31:02;;;;;;;17.15;9.95;;;8.80;93.40;;;;;;5024004;28;20045;-74
2022/01/29 05:33:27;;;;;;;16.00;10.57;;;8.80;93.30;;;;;;5024809;28;20079;-74
2022/01/29 05:35:53;;;;;;;17.00;10.02;;;8.70;93.40;;;;;;5021695;28;20041;-74
2022/01/29 05:38:19;;;;;;;17.38;9.35;;;8.70;93.30;;;;;;5003103;28;20099;-73
2022/01/29 05:40:45;;;;;;;15.07;9.70;;;8.70;93.40;;;;;;5012061;28;20025;-75
2022/01/29 05:43:10;;;;;;;15.23;9.57;;;8.70;93.50;;;;;;5020836;28;20028;-75
2022/01/29 05:45:36;;;;;;;15.73;8.95;;;8.70;93.50;;;;;;5026354;28;20416;-74
2022/01/29 05:48:02;;;;;;;16.70;9.45;;;8.70;93.50;;;;;;5021913;28;20395;-75
2022/01/29 05:50:27;;;;;;;16.05;9.27;;;8.70;93.60;;;;;;5020090;28;20037;-74
2022/01/29 05:52:53;;;;;;;17.02;9.55;;;8.80;93.60;;;;;;5022368;28;20485;-73
2022/01/29 05:55:19;;;;;;;17.65;9.43;;;8.80;93.60;;;;;;5004368;28;20414;-75
2022/01/29 05:57:44;;;;;;;15.18;9.35;;;8.70;93.60;;;;;;5024063;28;20546;-73
2022/01/29 06:00:10;;;;;;;15.68;9.25;;;8.80;93.50;;;;;;5007837;28;20036;-75
2022/01/29 06:02:36;;;;;;;16.63;9.00;;;8.80;93.60;;;;;;5022345;28;20547;-73
2022/01/29 06:05:02;;;;;;;17.63;9.77;;;8.80;93.60;;;;;;5021822;28;20121;-75
2022/01/29 06:07:27;;;;;;;19.55;9.20;;;8.80;93.60;;;;;;5018908;28;20120;-73
2022/01/29 06:09:53;;;;;;;17.95;10.02;;;8.80;93.50;;;;;;5017978;28;20061;-74
2022/01/29 06:12:19;;;;;;;17.77;9.55;;;8.90;93.60;;;;;;5019456;28;20413;-74
2022/01/29 06:14:44;;;;;;;18.23;10.20;;;8.90;93.50;;;;;;5021776;28;20029;-74
2022/01/29 06:17:11;;;;;;;16.98;10.20;;;8.90;93.50;;;;;;5019917;28;20448;-74
2022/01/29 06:19:37;;;;;;;17.17;10.40;;;8.90;93.50;;;;;;5023224;28;20043;-75
2022/01/29 06:22:08;;;;;;;19.88;10.15;;;8.90;93.40;;;;;;5020041;28;20041;-72
2022/01/29 06:24:34;;;;;;;15.57;10.48;;;9.00;93.40;;;;;;5019225;28;20235;-74
2022/01/29 06:26:59;;;;;;;16.63;10.30;;;9.00;93.40;;;;;;5018581;28;20044;-75
2022/01/29 06:29:25;;;;;;;19.73;10.98;;;9.10;93.50;;;;;;5026841;28;20029;-74
2022/01/29 06:31:50;;;;;;;20.23;10.98;;;9.10;93.40;;;;;;5010521;28;20036;-73
2022/01/29 06:34:16;;;;;;;18.38;10.15;;;9.10;93.40;;;;;;5000539;28;20068;-74
2022/01/29 06:36:42;;;;;;;17.15;10.52;;;9.10;93.40;;;;;;5021127;28;20042;-76
2022/01/29 06:39:07;;;;;;;17.77;10.30;;;9.20;93.30;;;;;;5021710;28;20402;-75
2022/01/29 06:41:33;;;;;;;23.27;11.02;;;9.20;93.40;;;;;;5020846;28;20030;-75
2022/01/29 06:43:59;;;;;;;16.30;10.38;;;9.20;93.30;;;;;;4992964;28;20053;-74
2022/01/29 06:46:24;;;;;;;21.30;11.27;;;9.30;93.20;;;;;;5022762;28;20037;-75
2022/01/29 06:48:50;;;;;;;18.33;10.07;;;9.30;93.10;;;;;;5030910;28;20499;-75
2022/01/29 06:51:17;;;;;;;18.77;10.88;;;9.30;93.20;;;;;;5008910;28;20045;-75
2022/01/29 06:53:42;;;;;;;18.70;9.98;;;9.40;93.20;;;;;;5022162;28;20041;-74
2022/01/29 06:56:08;;;;;;;21.27;10.20;;;9.40;93.10;;;;;;5019989;28;20065;-74
2022/01/29 06:58:35;;;;;;;19.60;11.05;;;9.40;93.10;;;;;;5026801;28;20460;-73
2022/01/29 07:01:01;;;;;;;16.75;10.05;;;9.50;93.10;;;;;;4997544;28;20465;-73
2022/01/29 07:03:27;;;;;;;18.50;9.57;;;9.50;93.10;;;;;;5020322;28;20038;-74
2022/01/29 07:05:53;;;;;;;17.80;9.70;;;9.50;93.10;;;;;;5015983;28;20044;-74
2022/01/29 07:08:18;;;;;;;16.67;9.70;;;9.50;93.10;;;;;;5014331;28;20865;-73
2022/01/29 07:10:45;;;;;;;19.13;9.57;;;9.50;93.10;;;;;;5017525;28;20033;-74
2022/01/29 07:13:11;;;;;;;15.90;9.70;;;9.50;93.20;;;;;;5017463;28;20029;-75
2022/01/29 07:15:38;;;;;;;16.65;9.50;;;9.50;93.20;;;;;;5017780;28;20374;-75
2022/01/29 07:18:04;;;;;;;17.63;10.35;;;9.60;93.10;;;;;;5020157;28;20117;-73
2022/01/29 07:20:30;;;;;;;17.40;10.50;;;9.60;93.20;;;;;;5023297;28;20476;-72
2022/01/29 07:22:55;;;;;;;19.73;11.10;;;9.60;93.40;;;;;;5014923;28;20200;-72
2022/01/29 07:25:21;;;;;;;20.33;11.60;;;9.60;93.40;;;;;;5000147;28;21007;-72
2022/01/29 07:27:47;;;;;;;20.52;12.18;;;9.60;93.60;;;;;;5014136;28;20084;-74
2022/01/29 07:30:12;;;;;;;20.70;12.93;;;9.50;93.50;;;;;;5018815;28;20026;-73
2022/01/29 07:32:45;;;;;;;22.45;14.30;;;9.50;93.70;;;;;;5009314;28;20407;-73
2022/01/29 07:35:11;;;;;;;23.00;13.65;;;9.60;93.70;;;;;;5004618;28;20594;-72
2022/01/29 07:37:37;;;;;;;23.80;14.30;;;9.50;93.70;;;;;;5016596;28;20059;-76
2022/01/29 07:40:05;;;;;;;23.83;15.43;;;9.50;93.80;;;;;;4999265;28;20587;-72
2022/01/29 07:42:30;;;;;;;26.58;16.25;;;9.60;94.00;;;;;;5010892;28;20068;-74
2022/01/29 07:44:56;;;;;;;23.65;14.80;;;9.50;94.00;;;;;;4994771;28;20421;-74
2022/01/29 07:47:21;;;;;;;21.83;14.73;;;9.50;94.00;;;;;;5012058;28;20030;-75
2022/01/29 07:49:47;;;;;;;25.35;15.65;;;9.60;94.10;;;;;;5011836;28;20063;-75
2022/01/29 07:52:13;;;;;;;24.95;14.60;;;9.60;94.00;;;;;;5012934;28;20061;-71
2022/01/29 07:54:39;;;;;;;30.70;15.20;;;9.60;94.10;;;;;;5010067;28;20037;-73
2022/01/29 07:57:05;;;;;;;22.98;14.68;;;9.60;94.00;;;;;;5011202;28;20143;-74
2022/01/29 07:59:30;;;;;;;29.25;15.32;;;9.60;94.10;;;;;;5020910;28;20040;-73
2022/01/29 08:01:56;;;;;;;24.85;13.90;;;9.60;94.10;;;;;;5008264;28;20442;-73
2022/01/29 08:04:24;;;;;;;24.80;14.27;;;9.60;94.00;;;;;;5011133;28;20050;-72
2022/01/29 08:06:50;;;;;;;24.73;14.45;;;9.60;94.10;;;;;;5025225;28;20037;-71
2022/01/29 08:09:16;;;;;;;24.10;13.52;;;9.60;94.00;;;;;;5029255;28;20029;-72
2022/01/29 08:11:42;;;;;;;26.65;14.45;;;9.60;94.00;;;;;;5015594;28;20052;-75
2022/01/29 08:14:09;;;;;;;24.35;15.15;;;9.60;94.00;;;;;;5011269;28;20864;-74
2022/01/29 08:16:35;;;;;;;22.48;13.30;;;9.60;94.00;;;;;;5013940;28;20461;-72
2022/01/29 08:19:00;;;;;;;23.88;14.57;;;9.60;94.00;;;;;;5016419;28;20421;-73
2022/01/29 08:21:26;;;;;;;19.02;12.13;;;9.60;94.00;;;;;;5016829;28;20026;-75
2022/01/29 08:23:52;;;;;;;23.90;14.13;;;9.60;93.90;;;;;;5007076;28;20507;-71
2022/01/29 08:26:18;;;;;;;17.80;11.48;;;9.70;93.70;;;;;;5037590;28;20045;-72
2022/01/29 08:28:43;;;;;;;18.92;11.75;;;9.70;93.60;;;;;;5013438;28;20041;-72
2022/01/29 08:31:09;;;;;;;19.42;11.35;;;9.60;93.40;;;;;;4991776;28;21312;-73
2022/01/29 08:33:35;;;;;;;19.52;11.60;;;9.60;93.40;;;;;;5014881;28;20472;-73
2022/01/29 08:36:03;;;;;;;19.73;11.45;;;9.70;93.40;;;;;;5003179;28;20059;-74
2022/01/29 08:38:28;;;;;;;16.33;10.15;;;9.60;93.40;;;;;;5005200;28;20596;-71
2022/01/29 08:40:55;;;;;;;18.50;10.85;;;9.70;93.20;;;;;;5016660;28;20572;-73
2022/01/29 08:43:22;;;;;;;16.05;9.48;;;9.70;93.20;;;;;;5000208;28;20037;-72
2022/01/29 08:45:50;;;;;;;15.77;9.50;;;9.70;93.20;;;;;;5041430;28;20111;-71
2022/01/29 08:48:15;;;;;;;15.82;8.68;;;9.70;93.20;;;;;;5055585;28;20040;-71
2022/01/29 08:50:41;;;;;;;16.35;8.35;;;9.70;93.00;;;;;;5056236;28;20033;-71
2022/01/29 08:53:07;;;;;;;16.20;8.55;;;9.70;92.70;;;;;;5054969;28;20072;-71
2022/01/29 08:55:36;;;;;;;16.50;8.07;;;9.80;92.70;;;;;;5056050;28;20079;-71
2022/01/29 08:58:08;;;;;;;16.02;8.43;;;9.80;92.60;;;;;;5020389;28;20814;-74
2022/01/29 09:00:38;;;;;;;14.75;8.77;;;9.80;92.60;;;;;;5005866;28;20540;-72
2022/01/29 09:03:04;;;;;;;15.90;8.98;;;9.80;92.70;;;;;;5019976;28;20029;-74
2022/01/29 09:05:30;;;;;;;14.82;9.18;;;9.80;92.70;;;;;;5023131;28;20427;-71
2022/01/29 09:07:57;;;;;;;15.65;7.80;;;9.80;92.50;;;;;;5020788;28;20106;-70
2022/01/29 09:10:22;;;;;;;14.38;8.25;;;9.80;92.50;;;;;;5035257;28;20087;-70
2022/01/29 09:12:48;;;;;;;14.38;8.15;;;9.90;92.50;;;;;;5025149;28;20033;-72
2022/01/29 09:15:14;;;;;;;13.10;8.07;;;9.90;92.50;;;;;;5020835;28;20036;-71
2022/01/29 09:17:41;;;;;;;14.10;8.35;;;9.90;92.30;;;;;;5017522;28;20260;-71
2022/01/29 09:20:10;;;;;;;14.10;8.18;;;10.00;92.30;;;;;;5018509;28;20492;-72
2022/01/29 09:22:37;;;;;;;16.65;8.40;;;10.00;92.20;;;;;;5021308;28;20044;-72
2022/01/29 09:25:03;;;;;;;15.73;8.80;;;10.10;92.10;;;;;;5022161;28;20029;-73
2022/01/29 09:27:29;;;;;;;16.92;9.52;;;10.10;91.90;;;;;;5022051;28;20080;-74
2022/01/29 09:29:54;;;;;;;13.80;8.63;;;10.20;91.70;;;;;;5022568;28;20562;-71
2022/01/29 09:32:20;;;;;;;14.52;9.35;;;10.20;91.70;;;;;;5017907;28;22430;-71
2022/01/29 09:34:46;;;;;;;15.65;8.57;;;10.30;91.50;;;;;;5021804;28;20160;-72
2022/01/29 09:37:11;;;;;;;17.48;9.32;;;10.30;91.30;;;;;;5024341;28;20503;-72
2022/01/29 09:39:38;;;;;;;18.55;8.98;;;10.30;91.30;;;;;;5019648;28;20090;-72
2022/01/29 09:42:04;;;;;;;16.30;8.70;;;10.40;91.10;;;;;;5024882;28;20033;-74
2022/01/29 09:44:34;;;;;;;14.05;7.18;;;10.50;91.20;;;;;;5018178;28;20550;-71
2022/01/29 09:47:03;;;;;;;15.05;7.80;;;10.60;90.70;;;;;;5026713;28;20079;-71
2022/01/29 09:49:33;;;;;;;13.60;7.13;;;10.60;90.30;;;;;;5015297;28;20137;-73
2022/01/29 09:51:59;;;;;;;12.45;7.47;;;10.60;90.10;;;;;;5019943;28;20128;-73
2022/01/29 09:54:25;;;;;;;14.80;7.22;;;10.60;90.10;;;;;;5022725;28;20041;-72
2022/01/29 09:56:50;;;;;;;12.50;6.53;;;10.70;89.90;;;;;;5018880;28;20492;-72
2022/01/29 09:59:16;;;;;;;12.60;5.68;;;10.70;89.60;;;;;;5020092;28;20088;-71
2022/01/29 10:01:42;;;;;;;11.00;5.82;;;10.70;89.20;;;;;;5020332;28;20045;-74
2022/01/29 10:04:08;;;;;;;13.88;5.97;;;10.70;89.40;;;;;;5025060;28;20209;-74
2022/01/29 10:06:35;;;;;;;13.27;5.57;;;10.90;89.30;;;;;;5007209;28;20463;-72
2022/01/29 10:09:06;;;;;;;9.48;4.65;;;11.00;88.80;;;;;;5019082;28;20030;-72
2022/01/29 10:11:32;;;;;;;9.50;3.95;;;11.20;88.60;;;;;;5016642;28;20036;-72
2022/01/29 10:14:00;;;;;;;8.07;3.38;;;11.30;88.00;;;;;;5025321;28;20037;-72
2022/01/29 10:16:28;;;;;;;8.73;3.90;;;11.40;87.10;;;;;;5020610;28;20037;-73
2022/01/29 10:19:05;;;;;;;9.35;3.63;;;11.20;87.10;;;;;;5020828;28;20029;-71
2022/01/29 10:21:33;;;;;;;8.60;3.38;;;11.30;87.10;;;;;;5018490;28;20034;-73
2022/01/29 10:24:10;;;;;;;8.75;3.35;;;11.20;87.50;;;;;;5018575;28;20021;-72
2022/01/29 10:26:50;;;;;;;7.00;2.78;;;11.20;87.20;;;;;;5018956;28;20042;-72
2022/01/29 10:29:24;;;;;;;7.85;3.05;;;11.20;87.10;;;;;;5018837;28;20030;-72
2022/01/29 10:31:53;;;;;;;7.28;3.05;;;11.30;86.90;;;;;;5020173;28;20037;-73
2022/01/29 10:34:30;;;;;;;8.00;2.97;;;11.40;86.60;;;;;;5019066;28;20511;-74
2022/01/29 10:37:18;;;;;;;7.07;2.40;;;11.50;86.10;;;;;;5002764;28;20102;-74
2022/01/29 10:40:16;;;;;;;8.40;2.55;;;11.60;85.70;;;;;;5015041;28;20022;-70
2022/01/29 10:42:42;;;;;;;6.47;2.47;;;11.60;85.10;;;;;;5010669;28;20356;-72
2022/01/29 10:45:08;;;;;;;5.03;2.15;;;11.70;85.40;;;;;;5021913;28;20049;-71
2022/01/29 10:47:56;;;;;;;7.43;2.53;;;11.60;85.10;;;;;;5020103;28;20041;-71
2022/01/29 10:50:22;;;;;;;7.40;2.47;;;11.60;85.00;;;;;;5002898;28;20376;-75
2022/01/29 10:52:48;;;;;;;7.57;2.78;;;11.60;85.10;;;;;;5019271;28;20076;-73
2022/01/29 10:55:14;;;;;;;10.00;2.67;;;11.60;85.40;;;;;;5019879;28;20033;-71
2022/01/29 10:57:42;;;;;;;5.82;2.22;;;11.60;85.10;;;;;;5016954;28;20052;-71
2022/01/29 11:00:23;;;;;;;6.25;2.30;;;11.60;85.20;;;;;;5016470;28;20630;-73
2022/01/29 11:02:51;;;;;;;6.88;2.60;;;11.50;85.20;;;;;;5012145;28;20341;-72
2022/01/29 11:05:17;;;;;;;7.35;2.70;;;11.50;85.40;;;;;;5017475;28;20037;-71
2022/01/29 11:07:51;;;;;;;6.50;2.55;;;11.50;85.40;;;;;;5015070;28;20152;-72
2022/01/29 11:10:18;;;;;;;8.88;2.60;;;11.60;85.30;;;;;;5017484;28;20102;-72
2022/01/29 11:12:45;;;;;;;8.73;3.08;;;11.60;85.40;;;;;;5022690;28;20041;-72
2022/01/29 11:15:12;;;;;;;8.45;2.70;;;11.50;85.50;;;;;;5003919;28;20469;-71
2022/01/29 11:17:37;;;;;;;7.05;2.75;;;11.60;85.40;;;;;;5017206;28;20124;-73
2022/01/29 11:20:04;;;;;;;9.50;2.55;;;11.60;85.40;;;;;;5016327;28;20128;-71
2022/01/29 11:22:38;;;;;;;7.50;2.78;;;11.70;85.00;;;;;;5024407;28;20433;-71
2022/01/29 11:25:07;;;;;;;7.17;2.63;;;11.80;85.10;;;;;;5020527;28;20030;-72
2022/01/29 11:27:37;;;;;;;6.75;2.55;;;11.90;85.00;;;;;;5020847;28;20038;-74
2022/01/29 11:30:09;;;;;;;6.93;2.92;;;11.90;84.80;;;;;;5022948;28;20025;-73
2022/01/29 11:32:42;;;;;;;10.07;2.75;;;11.80;84.70;;;;;;5016985;28;20032;-73
2022/01/29 11:35:20;;;;;;;9.38;2.78;;;12.00;84.70;;;;;;5013343;28;20541;-71
2022/01/29 11:38:06;;;;;;;8.57;2.85;;;12.00;84.40;;;;;;5024466;28;20048;-72
2022/01/29 11:40:53;;;;;;;10.57;3.05;;;11.90;84.60;;;;;;5013394;28;20093;-74
2022/01/29 11:43:19;;;;;;;6.30;2.42;;;12.10;84.60;;;;;;5032376;28;20098;-71
2022/01/29 11:46:07;;;;;;;9.88;2.65;;;12.30;84.00;;;;;;5029505;28;20022;-72
2022/01/29 11:48:35;;;;;;;9.27;3.00;;;12.30;83.80;;;;;;5013860;28;20414;-74
2022/01/29 11:51:05;;;;;;;9.77;2.60;;;12.30;83.80;;;;;;5021896;28;20470;-72
2022/01/29 11:54:00;;;;;;;7.93;2.67;;;12.30;83.20;;;;;;5027725;28;20051;-74
2022/01/29 11:56:38;;;;;;;9.80;2.63;;;12.40;83.20;;;;;;4999404;28;20050;-73
2022/01/29 11:59:19;;;;;;;10.18;2.78;;;12.50;83.20;;;;;;4999519;28;20029;-74
2022/01/29 12:02:08;;;;;;;7.60;2.42;;;12.50;82.50;;;;;;5018949;28;20749;-74
2022/01/29 12:04:49;;;;;;;9.48;2.53;;;12.40;82.80;;;;;;5015839;28;20091;-72
2022/01/29 12:07:25;;;;;;;8.73;2.50;;;12.30;82.60;;;;;;5014359;28;20052;-74
2022/01/29 12:10:03;;;;;;;8.85;2.53;;;12.30;83.00;;;;;;5010302;28;20087;-71
2022/01/29 12:12:30;;;;;;;10.98;2.88;;;12.30;82.80;;;;;;5003073;28;20089;-71
2022/01/29 12:15:18;;;;;;;8.35;3.17;;;12.40;82.60;;;;;;5014707;28;20037;-71
2022/01/29 12:17:58;;;;;;;9.68;3.92;;;12.50;82.70;;;;;;5009220;28;20544;-72
2022/01/29 12:20:26;;;;;;;12.63;4.55;;;12.50;82.70;;;;;;4993559;28;20112;-71
2022/01/29 12:23:00;;;;;;;11.60;4.35;;;12.60;82.40;;;;;;5012881;28;21029;-72
2022/01/29 12:25:27;;;;;;;10.10;4.53;;;12.70;82.20;;;;;;5008438;28;20036;-72
2022/01/29 12:28:01;;;;;;;8.32;3.67;;;12.70;82.30;;;;;;5015630;28;20374;-72
2022/01/29 12:30:39;;;;;;;9.50;3.63;;;12.70;81.70;;;;;;5003125;28;20371;-71
2022/01/29 12:33:16;;;;;;;8.13;4.07;;;12.80;81.60;;;;;;5012133;28;20280;-73
2022/01/29 12:35:58;;;;;;;11.82;4.60;;;12.90;81.00;;;;;;5008685;28;20035;-71
2022/01/29 12:38:36;;;;;;;11.68;4.20;;;13.00;81.20;;;;;;5012928;28;20038;-71
2022/01/29 12:41:11;;;;;;;10.07;3.38;;;12.90;80.80;;;;;;4995019;28;20042;-71
2022/01/29 12:43:41;;;;;;;;;;;12.80;80.80;;;;;;5014135;28;20054;-73
2022/01/29 12:46:13;;;;;;;8.77;3.65;;;12.80;80.80;;;;;;5014279;28;19966;-72
2022/01/29 12:48:39;;;;;;;11.30;3.72;;;12.60;81.00;;;;;;5013881;28;20487;-72
2022/01/29 12:51:06;;;;;;;9.40;3.35;;;12.60;81.80;;;;;;5014821;28;20042;-73
2022/01/29 12:53:33;;;;;;;12.05;3.70;;;12.70;81.50;;;;;;5018661;28;20045;-73
2022/01/29 12:56:03;;;;;;;12.73;3.08;;;12.70;81.10;;;;;;5015780;28;20551;-73